sensor_id;sensor_type;location;lat;lon;timestamp;temperature;humidity
37972;DHT22;23794;48.234;8.344;2022-10-26T00:01:11;13.30;99.90
37972;DHT22;23794;48.234;8.344;2022-10-26T00:03:40;13.30;99.90
37972;DHT22;23794;48.234;8.344;2022-10-26T00:06:15;13.30;99.90
37972;DHT22;23794;48.234;8.344;2022-10-26T00:08:43;13.30;99.90
37972;DHT22;23794;48.234;8.344;2022-10-26T00:11:11;13.30;99.90
37972;DHT22;23794;48.234;8.344;2022-10-26T00:13:39;13.20;99.90
37972;DHT22;23794;48.234;8.344;2022-10-26T00:16:18;13.20;99.90
37972;DHT22;23794;48.234;8.344;2022-10-26T00:18:46;13.00;99.90
37972;DHT22;23794;48.234;8.344;2022-10-26T00:21:13;12.90;99.90
37972;DHT22;23794;48.234;8.344;2022-10-26T00:23:40;12.80;99.90
37972;DHT22;23794;48.234;8.344;2022-10-26T00:26:07;12.70;99.90
37972;DHT22;23794;48.234;8.344;2022-10-26T00:28:34;12.70;99.90
37972;DHT22;23794;48.234;8.344;2022-10-26T00:31:05;12.70;99.90
37972;DHT22;23794;48.234;8.344;2022-10-26T00:33:32;12.80;99.90
37972;DHT22;23794;48.234;8.344;2022-10-26T00:35:59;12.90;99.90
37972;DHT22;23794;48.234;8.344;2022-10-26T00:38:25;12.90;99.90
37972;DHT22;23794;48.234;8.344;2022-10-26T00:40:52;12.90;99.90
37972;DHT22;23794;48.234;8.344;2022-10-26T00:45:49;12.50;99.90
37972;DHT22;23794;48.234;8.344;2022-10-26T00:48:26;12.60;99.90
37972;DHT22;23794;48.234;8.344;2022-10-26T00:50:55;12.50;99.90
37972;DHT22;23794;48.234;8.344;2022-10-26T00:53:24;12.60;99.90
37972;DHT22;23794;48.234;8.344;2022-10-26T00:55:51;12.60;99.90
37972;DHT22;23794;48.234;8.344;2022-10-26T00:58:20;12.40;99.90
37972;DHT22;23794;48.234;8.344;2022-10-26T01:00:47;12.40;99.90
37972;DHT22;23794;48.234;8.344;2022-10-26T01:03:16;12.30;99.90
37972;DHT22;23794;48.234;8.344;2022-10-26T01:05:44;12.40;99.90
37972;DHT22;23794;48.234;8.344;2022-10-26T01:08:12;12.30;99.90
37972;DHT22;23794;48.234;8.344;2022-10-26T01:10:40;12.40;99.90
37972;DHT22;23794;48.234;8.344;2022-10-26T01:13:08;12.40;99.90
37972;DHT22;23794;48.234;8.344;2022-10-26T01:18:20;12.20;99.90
37972;DHT22;23794;48.234;8.344;2022-10-26T01:29:13;12.30;99.90
37972;DHT22;23794;48.234;8.344;2022-10-26T01:31:56;12.20;99.90
37972;DHT22;23794;48.234;8.344;2022-10-26T01:34:34;12.10;99.90
37972;DHT22;23794;48.234;8.344;2022-10-26T01:37:11;12.20;99.90
37972;DHT22;23794;48.234;8.344;2022-10-26T01:39:49;12.10;99.90
37972;DHT22;23794;48.234;8.344;2022-10-26T01:42:20;12.10;99.90
37972;DHT22;23794;48.234;8.344;2022-10-26T01:44:52;12.20;99.90
37972;DHT22;23794;48.234;8.344;2022-10-26T01:47:21;12.20;99.90
37972;DHT22;23794;48.234;8.344;2022-10-26T01:49:54;12.30;99.90
37972;DHT22;23794;48.234;8.344;2022-10-26T01:52:24;12.30;99.90
37972;DHT22;23794;48.234;8.344;2022-10-26T01:54:51;12.20;99.90
37972;DHT22;23794;48.234;8.344;2022-10-26T01:57:19;12.20;99.90
37972;DHT22;23794;48.234;8.344;2022-10-26T02:00:08;12.30;99.90
37972;DHT22;23794;48.234;8.344;2022-10-26T02:08:13;12.40;99.90
37972;DHT22;23794;48.234;8.344;2022-10-26T02:11:21;12.40;99.90
37972;DHT22;23794;48.234;8.344;2022-10-26T02:16:40;12.40;99.90
37972;DHT22;23794;48.234;8.344;2022-10-26T02:19:45;12.40;99.90
37972;DHT22;23794;48.234;8.344;2022-10-26T02:22:20;12.30;99.90
37972;DHT22;23794;48.234;8.344;2022-10-26T02:24:50;12.30;99.90
37972;DHT22;23794;48.234;8.344;2022-10-26T02:27:31;12.40;99.90
37972;DHT22;23794;48.234;8.344;2022-10-26T02:30:01;12.40;99.90
37972;DHT22;23794;48.234;8.344;2022-10-26T02:32:32;12.30;99.90
37972;DHT22;23794;48.234;8.344;2022-10-26T02:35:01;12.40;99.90
37972;DHT22;23794;48.234;8.344;2022-10-26T02:37:29;12.40;99.90
37972;DHT22;23794;48.234;8.344;2022-10-26T02:39:59;12.30;99.90
37972;DHT22;23794;48.234;8.344;2022-10-26T02:42:27;12.30;99.90
37972;DHT22;23794;48.234;8.344;2022-10-26T02:45:02;12.20;99.90
37972;DHT22;23794;48.234;8.344;2022-10-26T02:47:30;12.20;99.90
37972;DHT22;23794;48.234;8.344;2022-10-26T02:49:57;12.30;99.90
37972;DHT22;23794;48.234;8.344;2022-10-26T02:55:04;12.30;99.90
37972;DHT22;23794;48.234;8.344;2022-10-26T02:57:33;12.40;99.90
37972;DHT22;23794;48.234;8.344;2022-10-26T03:00:10;12.30;99.90
37972;DHT22;23794;48.234;8.344;2022-10-26T03:02:37;12.30;99.90
37972;DHT22;23794;48.234;8.344;2022-10-26T03:05:08;12.30;99.90
37972;DHT22;23794;48.234;8.344;2022-10-26T03:07:36;12.30;99.90
37972;DHT22;23794;48.234;8.344;2022-10-26T03:10:03;12.30;99.90
37972;DHT22;23794;48.234;8.344;2022-10-26T03:12:29;12.20;99.90
37972;DHT22;23794;48.234;8.344;2022-10-26T03:14:56;12.30;99.90
37972;DHT22;23794;48.234;8.344;2022-10-26T03:17:23;12.40;99.90
37972;DHT22;23794;48.234;8.344;2022-10-26T03:19:49;12.50;99.90
37972;DHT22;23794;48.234;8.344;2022-10-26T03:22:16;12.60;99.90
37972;DHT22;23794;48.234;8.344;2022-10-26T03:24:43;12.60;99.90
37972;DHT22;23794;48.234;8.344;2022-10-26T03:27:10;12.60;99.90
37972;DHT22;23794;48.234;8.344;2022-10-26T03:29:36;12.50;99.90
37972;DHT22;23794;48.234;8.344;2022-10-26T03:32:03;12.40;99.90
37972;DHT22;23794;48.234;8.344;2022-10-26T03:34:30;12.20;99.90
37972;DHT22;23794;48.234;8.344;2022-10-26T03:36:57;12.10;99.90
37972;DHT22;23794;48.234;8.344;2022-10-26T03:39:24;12.10;99.90
37972;DHT22;23794;48.234;8.344;2022-10-26T03:41:50;12.20;99.90
37972;DHT22;23794;48.234;8.344;2022-10-26T03:44:22;12.30;99.90
37972;DHT22;23794;48.234;8.344;2022-10-26T03:46:49;12.20;99.90
37972;DHT22;23794;48.234;8.344;2022-10-26T03:49:15;12.30;99.90
37972;DHT22;23794;48.234;8.344;2022-10-26T03:51:42;12.30;99.90
37972;DHT22;23794;48.234;8.344;2022-10-26T03:54:09;12.30;99.90
37972;DHT22;23794;48.234;8.344;2022-10-26T03:56:36;12.30;99.90
37972;DHT22;23794;48.234;8.344;2022-10-26T03:59:03;12.30;99.90
37972;DHT22;23794;48.234;8.344;2022-10-26T04:01:30;12.30;99.90
37972;DHT22;23794;48.234;8.344;2022-10-26T04:03:56;12.20;99.90
37972;DHT22;23794;48.234;8.344;2022-10-26T04:06:23;12.10;99.90
37972;DHT22;23794;48.234;8.344;2022-10-26T04:08:50;12.10;99.90
37972;DHT22;23794;48.234;8.344;2022-10-26T04:11:17;12.10;99.90
37972;DHT22;23794;48.234;8.344;2022-10-26T04:13:44;11.90;99.90
37972;DHT22;23794;48.234;8.344;2022-10-26T04:16:10;11.90;99.90
37972;DHT22;23794;48.234;8.344;2022-10-26T04:18:37;12.00;99.90
37972;DHT22;23794;48.234;8.344;2022-10-26T04:21:04;11.90;99.90
37972;DHT22;23794;48.234;8.344;2022-10-26T04:23:31;11.90;99.90
37972;DHT22;23794;48.234;8.344;2022-10-26T04:25:57;11.90;99.90
37972;DHT22;23794;48.234;8.344;2022-10-26T04:28:24;11.90;99.90
37972;DHT22;23794;48.234;8.344;2022-10-26T04:30:51;11.80;99.90
37972;DHT22;23794;48.234;8.344;2022-10-26T04:33:18;11.80;99.90
37972;DHT22;23794;48.234;8.344;2022-10-26T04:35:44;11.80;99.90
37972;DHT22;23794;48.234;8.344;2022-10-26T04:38:11;11.70;99.90
37972;DHT22;23794;48.234;8.344;2022-10-26T04:40:38;11.70;99.90
37972;DHT22;23794;48.234;8.344;2022-10-26T04:43:05;11.60;99.90
37972;DHT22;23794;48.234;8.344;2022-10-26T04:45:32;11.70;99.90
37972;DHT22;23794;48.234;8.344;2022-10-26T04:48:09;11.70;99.90
37972;DHT22;23794;48.234;8.344;2022-10-26T04:50:36;11.60;99.90
37972;DHT22;23794;48.234;8.344;2022-10-26T04:53:05;11.70;99.90
37972;DHT22;23794;48.234;8.344;2022-10-26T04:55:32;11.80;99.90
37972;DHT22;23794;48.234;8.344;2022-10-26T04:57:59;11.70;99.90
37972;DHT22;23794;48.234;8.344;2022-10-26T05:00:28;11.60;99.90
37972;DHT22;23794;48.234;8.344;2022-10-26T05:02:59;11.70;99.90
37972;DHT22;23794;48.234;8.344;2022-10-26T05:05:26;11.70;99.90
37972;DHT22;23794;48.234;8.344;2022-10-26T05:07:54;11.70;99.90
37972;DHT22;23794;48.234;8.344;2022-10-26T05:10:24;11.70;99.90
37972;DHT22;23794;48.234;8.344;2022-10-26T05:12:55;11.80;99.90
37972;DHT22;23794;48.234;8.344;2022-10-26T05:15:22;11.80;99.90
37972;DHT22;23794;48.234;8.344;2022-10-26T05:17:55;11.70;99.90
37972;DHT22;23794;48.234;8.344;2022-10-26T05:20:23;11.60;99.90
37972;DHT22;23794;48.234;8.344;2022-10-26T05:22:59;11.70;99.90
37972;DHT22;23794;48.234;8.344;2022-10-26T05:25:29;11.80;99.90
37972;DHT22;23794;48.234;8.344;2022-10-26T05:28:01;11.70;99.90
37972;DHT22;23794;48.234;8.344;2022-10-26T05:30:30;11.70;99.90
37972;DHT22;23794;48.234;8.344;2022-10-26T05:32:59;11.70;99.90
37972;DHT22;23794;48.234;8.344;2022-10-26T05:35:26;11.60;99.90
37972;DHT22;23794;48.234;8.344;2022-10-26T05:37:53;11.60;99.90
37972;DHT22;23794;48.234;8.344;2022-10-26T05:40:20;11.70;99.90
37972;DHT22;23794;48.234;8.344;2022-10-26T05:42:47;11.80;99.90
37972;DHT22;23794;48.234;8.344;2022-10-26T05:45:17;11.60;99.90
37972;DHT22;23794;48.234;8.344;2022-10-26T05:47:45;11.60;99.90
37972;DHT22;23794;48.234;8.344;2022-10-26T05:50:12;11.60;99.90
37972;DHT22;23794;48.234;8.344;2022-10-26T05:52:45;11.70;99.90
37972;DHT22;23794;48.234;8.344;2022-10-26T05:55:14;11.70;99.90
37972;DHT22;23794;48.234;8.344;2022-10-26T05:57:42;11.60;99.90
37972;DHT22;23794;48.234;8.344;2022-10-26T06:00:15;11.40;99.90
37972;DHT22;23794;48.234;8.344;2022-10-26T06:03:06;11.40;99.90
37972;DHT22;23794;48.234;8.344;2022-10-26T06:05:57;11.50;99.90
37972;DHT22;23794;48.234;8.344;2022-10-26T06:08:27;11.50;99.90
37972;DHT22;23794;48.234;8.344;2022-10-26T06:10:55;11.50;99.90
37972;DHT22;23794;48.234;8.344;2022-10-26T06:13:25;11.30;99.90
37972;DHT22;23794;48.234;8.344;2022-10-26T06:16:04;11.30;99.90
37972;DHT22;23794;48.234;8.344;2022-10-26T06:26:51;11.40;99.90
37972;DHT22;23794;48.234;8.344;2022-10-26T06:32:02;11.20;99.90
37972;DHT22;23794;48.234;8.344;2022-10-26T06:34:32;11.30;99.90
37972;DHT22;23794;48.234;8.344;2022-10-26T06:37:00;11.30;99.90
37972;DHT22;23794;48.234;8.344;2022-10-26T06:39:28;11.30;99.90
37972;DHT22;23794;48.234;8.344;2022-10-26T06:41:57;11.30;99.90
37972;DHT22;23794;48.234;8.344;2022-10-26T06:44:24;11.30;99.90
37972;DHT22;23794;48.234;8.344;2022-10-26T06:47:20;11.30;99.90
37972;DHT22;23794;48.234;8.344;2022-10-26T06:49:59;11.30;99.90
37972;DHT22;23794;48.234;8.344;2022-10-26T06:52:36;11.30;99.90
37972;DHT22;23794;48.234;8.344;2022-10-26T06:55:12;11.50;99.90
37972;DHT22;23794;48.234;8.344;2022-10-26T06:57:41;11.60;99.90
37972;DHT22;23794;48.234;8.344;2022-10-26T07:00:22;11.70;99.90
37972;DHT22;23794;48.234;8.344;2022-10-26T07:02:50;11.80;99.90
37972;DHT22;23794;48.234;8.344;2022-10-26T07:05:18;11.80;99.90
37972;DHT22;23794;48.234;8.344;2022-10-26T07:07:46;11.90;99.90
37972;DHT22;23794;48.234;8.344;2022-10-26T07:10:14;12.00;99.90
37972;DHT22;23794;48.234;8.344;2022-10-26T07:12:41;12.10;99.90
37972;DHT22;23794;48.234;8.344;2022-10-26T07:15:07;12.20;99.90
37972;DHT22;23794;48.234;8.344;2022-10-26T07:17:46;12.20;99.90
37972;DHT22;23794;48.234;8.344;2022-10-26T07:20:16;12.20;99.90
37972;DHT22;23794;48.234;8.344;2022-10-26T07:22:43;12.20;99.90
37972;DHT22;23794;48.234;8.344;2022-10-26T07:25:11;12.30;99.90
37972;DHT22;23794;48.234;8.344;2022-10-26T07:27:38;12.50;99.90
37972;DHT22;23794;48.234;8.344;2022-10-26T07:30:05;12.70;99.90
37972;DHT22;23794;48.234;8.344;2022-10-26T07:32:32;12.80;99.90
37972;DHT22;23794;48.234;8.344;2022-10-26T07:34:59;13.00;99.90
37972;DHT22;23794;48.234;8.344;2022-10-26T07:37:26;13.20;99.90
37972;DHT22;23794;48.234;8.344;2022-10-26T07:39:53;13.40;99.90
37972;DHT22;23794;48.234;8.344;2022-10-26T07:42:19;13.40;99.90
37972;DHT22;23794;48.234;8.344;2022-10-26T07:44:46;13.50;99.90
37972;DHT22;23794;48.234;8.344;2022-10-26T07:47:13;13.60;99.90
37972;DHT22;23794;48.234;8.344;2022-10-26T07:49:40;13.70;99.90
37972;DHT22;23794;48.234;8.344;2022-10-26T07:52:07;14.00;99.90
37972;DHT22;23794;48.234;8.344;2022-10-26T07:54:34;14.00;99.90
37972;DHT22;23794;48.234;8.344;2022-10-26T07:57:01;14.10;99.90
37972;DHT22;23794;48.234;8.344;2022-10-26T07:59:28;14.20;99.90
37972;DHT22;23794;48.234;8.344;2022-10-26T08:01:55;14.10;99.90
37972;DHT22;23794;48.234;8.344;2022-10-26T08:04:22;14.20;99.90
37972;DHT22;23794;48.234;8.344;2022-10-26T08:06:51;14.20;99.90
37972;DHT22;23794;48.234;8.344;2022-10-26T08:09:18;14.30;99.90
37972;DHT22;23794;48.234;8.344;2022-10-26T08:11:45;14.40;99.90
37972;DHT22;23794;48.234;8.344;2022-10-26T08:14:12;14.50;99.90
37972;DHT22;23794;48.234;8.344;2022-10-26T08:16:39;14.50;99.90
37972;DHT22;23794;48.234;8.344;2022-10-26T08:19:06;14.40;99.90
37972;DHT22;23794;48.234;8.344;2022-10-26T08:21:33;14.50;99.90
37972;DHT22;23794;48.234;8.344;2022-10-26T08:24:07;14.40;99.90
37972;DHT22;23794;48.234;8.344;2022-10-26T08:26:34;14.30;99.90
37972;DHT22;23794;48.234;8.344;2022-10-26T08:29:00;14.40;99.90
37972;DHT22;23794;48.234;8.344;2022-10-26T08:31:27;14.40;99.90
37972;DHT22;23794;48.234;8.344;2022-10-26T08:33:54;14.50;99.90
37972;DHT22;23794;48.234;8.344;2022-10-26T08:36:24;14.60;99.90
37972;DHT22;23794;48.234;8.344;2022-10-26T08:38:51;14.60;99.90
37972;DHT22;23794;48.234;8.344;2022-10-26T08:41:34;14.50;99.90
37972;DHT22;23794;48.234;8.344;2022-10-26T08:46:56;14.50;99.90
37972;DHT22;23794;48.234;8.344;2022-10-26T08:49:30;14.60;99.90
37972;DHT22;23794;48.234;8.344;2022-10-26T08:52:01;14.80;99.90
37972;DHT22;23794;48.234;8.344;2022-10-26T08:59:56;15.10;99.90
37972;DHT22;23794;48.234;8.344;2022-10-26T09:02:24;15.00;99.90
37972;DHT22;23794;48.234;8.344;2022-10-26T09:04:52;15.10;99.90
37972;DHT22;23794;48.234;8.344;2022-10-26T09:10:12;15.10;99.90
37972;DHT22;23794;48.234;8.344;2022-10-26T09:12:44;15.20;99.90
37972;DHT22;23794;48.234;8.344;2022-10-26T09:26:41;15.50;99.90
37972;DHT22;23794;48.234;8.344;2022-10-26T09:29:12;15.70;99.90
37972;DHT22;23794;48.234;8.344;2022-10-26T09:31:42;15.80;99.90
37972;DHT22;23794;48.234;8.344;2022-10-26T09:34:21;16.00;99.90
37972;DHT22;23794;48.234;8.344;2022-10-26T09:36:52;16.30;99.90
37972;DHT22;23794;48.234;8.344;2022-10-26T09:42:10;16.50;99.90
37972;DHT22;23794;48.234;8.344;2022-10-26T09:44:56;16.50;99.90
37972;DHT22;23794;48.234;8.344;2022-10-26T09:47:34;16.80;99.90
37972;DHT22;23794;48.234;8.344;2022-10-26T09:50:16;16.80;99.90
37972;DHT22;23794;48.234;8.344;2022-10-26T09:52:43;16.80;99.90
37972;DHT22;23794;48.234;8.344;2022-10-26T09:55:11;16.80;99.90
37972;DHT22;23794;48.234;8.344;2022-10-26T09:57:42;16.90;99.90
37972;DHT22;23794;48.234;8.344;2022-10-26T10:00:17;17.30;99.90
37972;DHT22;23794;48.234;8.344;2022-10-26T10:02:49;17.60;99.90
37972;DHT22;23794;48.234;8.344;2022-10-26T10:05:33;17.70;99.90
37972;DHT22;23794;48.234;8.344;2022-10-26T10:08:23;17.80;99.90
37972;DHT22;23794;48.234;8.344;2022-10-26T10:11:00;18.10;99.90
37972;DHT22;23794;48.234;8.344;2022-10-26T10:13:32;18.10;99.90
37972;DHT22;23794;48.234;8.344;2022-10-26T10:18:29;18.10;99.90
37972;DHT22;23794;48.234;8.344;2022-10-26T10:20:57;18.10;99.90
37972;DHT22;23794;48.234;8.344;2022-10-26T10:23:37;18.00;99.90
37972;DHT22;23794;48.234;8.344;2022-10-26T10:26:11;18.10;99.90
37972;DHT22;23794;48.234;8.344;2022-10-26T10:28:41;18.00;99.90
37972;DHT22;23794;48.234;8.344;2022-10-26T10:31:26;18.10;99.90
37972;DHT22;23794;48.234;8.344;2022-10-26T10:33:53;18.30;99.90
37972;DHT22;23794;48.234;8.344;2022-10-26T10:36:22;18.40;99.90
37972;DHT22;23794;48.234;8.344;2022-10-26T10:38:52;18.40;99.90
37972;DHT22;23794;48.234;8.344;2022-10-26T10:41:33;18.30;99.90
37972;DHT22;23794;48.234;8.344;2022-10-26T10:44:07;18.30;99.90
37972;DHT22;23794;48.234;8.344;2022-10-26T10:46:38;18.60;99.90
37972;DHT22;23794;48.234;8.344;2022-10-26T10:49:17;19.00;99.90
37972;DHT22;23794;48.234;8.344;2022-10-26T10:51:45;19.40;99.90
37972;DHT22;23794;48.234;8.344;2022-10-26T10:54:34;19.50;99.90
37972;DHT22;23794;48.234;8.344;2022-10-26T10:57:21;19.60;99.90
37972;DHT22;23794;48.234;8.344;2022-10-26T11:08:19;20.00;99.90
37972;DHT22;23794;48.234;8.344;2022-10-26T11:11:06;20.10;99.90
37972;DHT22;23794;48.234;8.344;2022-10-26T11:16:12;20.10;99.90
37972;DHT22;23794;48.234;8.344;2022-10-26T11:21:48;19.90;99.90
37972;DHT22;23794;48.234;8.344;2022-10-26T11:24:21;20.00;99.90
37972;DHT22;23794;48.234;8.344;2022-10-26T11:32:22;19.90;99.90
37972;DHT22;23794;48.234;8.344;2022-10-26T11:37:51;20.10;99.90
37972;DHT22;23794;48.234;8.344;2022-10-26T11:45:47;20.20;99.90
37972;DHT22;23794;48.234;8.344;2022-10-26T11:48:27;20.20;99.90
37972;DHT22;23794;48.234;8.344;2022-10-26T11:50:58;20.20;99.90
37972;DHT22;23794;48.234;8.344;2022-10-26T11:53:30;20.20;99.90
37972;DHT22;23794;48.234;8.344;2022-10-26T11:55:57;20.30;99.90
37972;DHT22;23794;48.234;8.344;2022-10-26T11:58:26;20.40;99.90
37972;DHT22;23794;48.234;8.344;2022-10-26T12:00:58;20.50;99.90
37972;DHT22;23794;48.234;8.344;2022-10-26T12:03:29;20.60;99.90
37972;DHT22;23794;48.234;8.344;2022-10-26T12:05:57;20.50;99.90
37972;DHT22;23794;48.234;8.344;2022-10-26T12:08:26;20.70;99.90
37972;DHT22;23794;48.234;8.344;2022-10-26T12:13:41;20.70;99.90
37972;DHT22;23794;48.234;8.344;2022-10-26T12:16:19;20.60;99.90
37972;DHT22;23794;48.234;8.344;2022-10-26T12:18:52;20.50;99.90
37972;DHT22;23794;48.234;8.344;2022-10-26T12:21:27;20.40;99.90
37972;DHT22;23794;48.234;8.344;2022-10-26T12:24:00;20.50;99.90
37972;DHT22;23794;48.234;8.344;2022-10-26T12:34:23;20.50;99.90
37972;DHT22;23794;48.234;8.344;2022-10-26T12:39:31;20.90;99.90
37972;DHT22;23794;48.234;8.344;2022-10-26T12:49:59;21.00;99.90
37972;DHT22;23794;48.234;8.344;2022-10-26T12:52:45;21.10;99.90
37972;DHT22;23794;48.234;8.344;2022-10-26T13:00:21;21.10;99.90
37972;DHT22;23794;48.234;8.344;2022-10-26T13:08:51;20.90;99.90
37972;DHT22;23794;48.234;8.344;2022-10-26T13:11:35;20.70;99.90
37972;DHT22;23794;48.234;8.344;2022-10-26T13:14:20;20.80;99.90
37972;DHT22;23794;48.234;8.344;2022-10-26T13:16:48;21.00;99.90
37972;DHT22;23794;48.234;8.344;2022-10-26T13:19:43;21.00;99.90
37972;DHT22;23794;48.234;8.344;2022-10-26T13:22:28;20.80;99.90
37972;DHT22;23794;48.234;8.344;2022-10-26T13:25:01;20.90;99.90
37972;DHT22;23794;48.234;8.344;2022-10-26T13:30:19;21.00;99.90
37972;DHT22;23794;48.234;8.344;2022-10-26T13:32:54;20.90;99.90
37972;DHT22;23794;48.234;8.344;2022-10-26T13:35:23;20.50;99.90
37972;DHT22;23794;48.234;8.344;2022-10-26T13:37:53;20.20;99.90
37972;DHT22;23794;48.234;8.344;2022-10-26T13:40:23;19.90;99.90
37972;DHT22;23794;48.234;8.344;2022-10-26T13:42:56;19.70;99.90
37972;DHT22;23794;48.234;8.344;2022-10-26T13:45:28;19.40;99.90
37972;DHT22;23794;48.234;8.344;2022-10-26T13:48:22;19.40;99.90
37972;DHT22;23794;48.234;8.344;2022-10-26T13:50:54;19.40;99.90
37972;DHT22;23794;48.234;8.344;2022-10-26T13:53:40;19.50;99.90
37972;DHT22;23794;48.234;8.344;2022-10-26T13:59:05;19.80;99.90
37972;DHT22;23794;48.234;8.344;2022-10-26T14:01:34;19.80;99.90
37972;DHT22;23794;48.234;8.344;2022-10-26T14:04:25;19.70;99.90
37972;DHT22;23794;48.234;8.344;2022-10-26T14:06:53;19.50;99.90
37972;DHT22;23794;48.234;8.344;2022-10-26T14:09:21;19.50;99.90
37972;DHT22;23794;48.234;8.344;2022-10-26T14:11:51;19.50;99.90
37972;DHT22;23794;48.234;8.344;2022-10-26T14:14:37;19.50;99.90
37972;DHT22;23794;48.234;8.344;2022-10-26T14:17:04;19.50;99.90
37972;DHT22;23794;48.234;8.344;2022-10-26T14:19:36;19.40;99.90
37972;DHT22;23794;48.234;8.344;2022-10-26T14:22:04;19.40;99.90
37972;DHT22;23794;48.234;8.344;2022-10-26T14:24:33;19.50;99.90
37972;DHT22;23794;48.234;8.344;2022-10-26T14:27:17;19.50;99.90
37972;DHT22;23794;48.234;8.344;2022-10-26T14:29:44;19.60;99.90
37972;DHT22;23794;48.234;8.344;2022-10-26T14:32:31;19.60;99.90
37972;DHT22;23794;48.234;8.344;2022-10-26T14:34:59;19.30;99.90
37972;DHT22;23794;48.234;8.344;2022-10-26T14:40:05;18.90;99.90
37972;DHT22;23794;48.234;8.344;2022-10-26T14:42:37;18.90;99.90
37972;DHT22;23794;48.234;8.344;2022-10-26T14:45:17;18.70;99.90
37972;DHT22;23794;48.234;8.344;2022-10-26T14:47:55;18.60;99.90
37972;DHT22;23794;48.234;8.344;2022-10-26T14:50:23;18.30;99.90
37972;DHT22;23794;48.234;8.344;2022-10-26T14:52:54;18.10;99.90
37972;DHT22;23794;48.234;8.344;2022-10-26T14:55:23;18.00;99.90
37972;DHT22;23794;48.234;8.344;2022-10-26T14:57:51;17.90;99.90
37972;DHT22;23794;48.234;8.344;2022-10-26T15:00:22;17.90;99.90
37972;DHT22;23794;48.234;8.344;2022-10-26T15:02:51;17.70;99.90
37972;DHT22;23794;48.234;8.344;2022-10-26T15:05:25;17.70;99.90
37972;DHT22;23794;48.234;8.344;2022-10-26T15:08:01;17.60;99.90
37972;DHT22;23794;48.234;8.344;2022-10-26T15:13:25;17.50;99.90
37972;DHT22;23794;48.234;8.344;2022-10-26T15:15:57;17.50;99.90
37972;DHT22;23794;48.234;8.344;2022-10-26T15:18:30;17.40;99.90
37972;DHT22;23794;48.234;8.344;2022-10-26T15:20:58;17.50;99.90
37972;DHT22;23794;48.234;8.344;2022-10-26T15:23:27;17.50;99.90
37972;DHT22;23794;48.234;8.344;2022-10-26T15:25:57;17.40;99.90
37972;DHT22;23794;48.234;8.344;2022-10-26T15:36:19;16.90;99.90
37972;DHT22;23794;48.234;8.344;2022-10-26T15:38:46;16.90;99.90
37972;DHT22;23794;48.234;8.344;2022-10-26T15:41:28;16.80;99.90
37972;DHT22;23794;48.234;8.344;2022-10-26T15:43:58;16.70;99.90
37972;DHT22;23794;48.234;8.344;2022-10-26T15:46:32;16.70;99.90
37972;DHT22;23794;48.234;8.344;2022-10-26T15:49:01;16.40;99.90
37972;DHT22;23794;48.234;8.344;2022-10-26T15:51:28;16.30;99.90
37972;DHT22;23794;48.234;8.344;2022-10-26T15:54:01;16.20;99.90
37972;DHT22;23794;48.234;8.344;2022-10-26T15:56:29;16.10;99.90
37972;DHT22;23794;48.234;8.344;2022-10-26T15:58:57;16.10;99.90
37972;DHT22;23794;48.234;8.344;2022-10-26T16:01:26;15.90;99.90
37972;DHT22;23794;48.234;8.344;2022-10-26T16:03:54;15.80;99.90
37972;DHT22;23794;48.234;8.344;2022-10-26T16:06:30;15.70;99.90
37972;DHT22;23794;48.234;8.344;2022-10-26T16:09:04;15.70;99.90
37972;DHT22;23794;48.234;8.344;2022-10-26T16:11:32;15.50;99.90
37972;DHT22;23794;48.234;8.344;2022-10-26T16:13:59;15.50;99.90
37972;DHT22;23794;48.234;8.344;2022-10-26T16:16:29;15.50;99.90
37972;DHT22;23794;48.234;8.344;2022-10-26T16:18:56;15.40;99.90
37972;DHT22;23794;48.234;8.344;2022-10-26T16:21:43;15.20;99.90
37972;DHT22;23794;48.234;8.344;2022-10-26T16:24:10;15.20;99.90
37972;DHT22;23794;48.234;8.344;2022-10-26T16:26:37;15.10;99.90
37972;DHT22;23794;48.234;8.344;2022-10-26T16:29:04;14.90;99.90
37972;DHT22;23794;48.234;8.344;2022-10-26T16:31:31;14.80;99.90
37972;DHT22;23794;48.234;8.344;2022-10-26T16:33:57;14.80;99.90
37972;DHT22;23794;48.234;8.344;2022-10-26T16:36:29;14.80;99.90
37972;DHT22;23794;48.234;8.344;2022-10-26T16:38:58;14.80;99.90
37972;DHT22;23794;48.234;8.344;2022-10-26T16:41:25;14.70;99.90
37972;DHT22;23794;48.234;8.344;2022-10-26T16:43:52;14.70;99.90
37972;DHT22;23794;48.234;8.344;2022-10-26T16:46:19;14.70;99.90
37972;DHT22;23794;48.234;8.344;2022-10-26T16:48:48;14.60;99.90
37972;DHT22;23794;48.234;8.344;2022-10-26T16:51:23;14.60;99.90
37972;DHT22;23794;48.234;8.344;2022-10-26T16:53:55;14.50;99.90
37972;DHT22;23794;48.234;8.344;2022-10-26T16:56:24;14.40;99.90
37972;DHT22;23794;48.234;8.344;2022-10-26T16:58:51;14.30;99.90
37972;DHT22;23794;48.234;8.344;2022-10-26T17:01:19;14.30;99.90
37972;DHT22;23794;48.234;8.344;2022-10-26T17:03:48;14.30;99.90
37972;DHT22;23794;48.234;8.344;2022-10-26T17:06:16;14.30;99.90
37972;DHT22;23794;48.234;8.344;2022-10-26T17:08:43;14.30;99.90
37972;DHT22;23794;48.234;8.344;2022-10-26T17:11:19;14.30;99.90
37972;DHT22;23794;48.234;8.344;2022-10-26T17:13:46;14.10;99.90
37972;DHT22;23794;48.234;8.344;2022-10-26T17:16:19;14.00;99.90
37972;DHT22;23794;48.234;8.344;2022-10-26T17:18:48;14.00;99.90
37972;DHT22;23794;48.234;8.344;2022-10-26T17:21:17;13.90;99.90
37972;DHT22;23794;48.234;8.344;2022-10-26T17:23:44;13.90;99.90
37972;DHT22;23794;48.234;8.344;2022-10-26T17:26:13;13.90;99.90
37972;DHT22;23794;48.234;8.344;2022-10-26T17:28:40;13.90;99.90
37972;DHT22;23794;48.234;8.344;2022-10-26T17:31:12;13.80;99.90
37972;DHT22;23794;48.234;8.344;2022-10-26T17:33:41;13.80;99.90
37972;DHT22;23794;48.234;8.344;2022-10-26T17:36:12;13.60;99.90
37972;DHT22;23794;48.234;8.344;2022-10-26T17:38:40;13.70;99.90
37972;DHT22;23794;48.234;8.344;2022-10-26T17:41:09;13.70;99.90
37972;DHT22;23794;48.234;8.344;2022-10-26T17:43:38;13.60;99.90
37972;DHT22;23794;48.234;8.344;2022-10-26T17:48:40;13.60;99.90
37972;DHT22;23794;48.234;8.344;2022-10-26T17:51:15;13.60;99.90
37972;DHT22;23794;48.234;8.344;2022-10-26T17:53:45;13.50;99.90
37972;DHT22;23794;48.234;8.344;2022-10-26T17:56:15;13.40;99.90
37972;DHT22;23794;48.234;8.344;2022-10-26T17:58:42;13.40;99.90
37972;DHT22;23794;48.234;8.344;2022-10-26T18:01:11;13.30;99.90
37972;DHT22;23794;48.234;8.344;2022-10-26T18:03:39;13.20;99.90
37972;DHT22;23794;48.234;8.344;2022-10-26T18:06:07;13.20;99.90
37972;DHT22;23794;48.234;8.344;2022-10-26T18:08:36;13.30;99.90
37972;DHT22;23794;48.234;8.344;2022-10-26T18:11:04;13.30;99.90
37972;DHT22;23794;48.234;8.344;2022-10-26T18:13:32;13.30;99.90
37972;DHT22;23794;48.234;8.344;2022-10-26T18:16:11;13.20;99.90
37972;DHT22;23794;48.234;8.344;2022-10-26T18:18:39;13.10;99.90